Time;durP1;ratioP1;P1;durP2;ratioP2;P2;SDS_P1;SDS_P2;PMS_P1;PMS_P2;Temp;Humidity;BMP_temperature;BMP_pressure;BME280_temperature;BME280_humidity;BME280_pressure;Samples;Min_cycle;Max_cycle;Signal;HPM_P1;HPM_P2
2021/06/03 00:01:21;;;;;;;5.28;4.25;;;19.60;99.90;;;;;;4959036;29;20302;-81
2021/06/03 00:03:48;;;;;;;4.53;4.13;;;19.60;99.90;;;;;;4958049;29;20259;-81
2021/06/03 00:06:15;;;;;;;4.88;4.47;;;19.50;99.90;;;;;;4958577;29;20286;-82
2021/06/03 00:08:43;;;;;;;6.95;4.22;;;19.50;99.90;;;;;;4959751;28;20211;-81
2021/06/03 00:11:12;;;;;;;6.43;4.00;;;19.50;99.90;;;;;;4959574;28;20229;-82
2021/06/03 00:13:43;;;;;;;7.05;5.00;;;19.40;99.90;;;;;;4958159;28;20278;-81
2021/06/03 00:16:12;;;;;;;5.43;4.80;;;19.40;99.90;;;;;;4958392;28;20206;-81
2021/06/03 00:18:40;;;;;;;4.65;4.25;;;19.50;99.90;;;;;;4959385;28;20271;-81
2021/06/03 00:21:07;;;;;;;5.55;4.28;;;19.50;99.90;;;;;;4959654;28;20254;-81
2021/06/03 00:23:35;;;;;;;6.57;4.43;;;19.50;99.90;;;;;;4959432;28;20226;-81
2021/06/03 00:26:02;;;;;;;5.70;3.90;;;19.40;99.90;;;;;;4941648;28;20253;-81
2021/06/03 00:28:32;;;;;;;5.05;4.13;;;19.40;99.90;;;;;;4958203;29;20674;-82
2021/06/03 00:31:07;;;;;;;4.57;3.47;;;19.30;99.90;;;;;;4958936;28;20223;-81
2021/06/03 00:33:34;;;;;;;5.88;4.75;;;19.30;99.90;;;;;;4958585;28;20209;-81
2021/06/03 00:36:05;;;;;;;9.98;4.45;;;19.20;99.90;;;;;;4958128;29;20195;-81
2021/06/03 00:38:32;;;;;;;5.75;3.90;;;19.00;99.90;;;;;;4957523;28;20202;-82
2021/06/03 00:40:58;;;;;;;4.63;4.22;;;19.00;99.90;;;;;;4957698;29;20239;-82
2021/06/03 00:43:25;;;;;;;4.60;4.03;;;19.00;99.90;;;;;;4942014;29;20211;-81
2021/06/03 00:45:52;;;;;;;4.32;3.92;;;19.00;99.90;;;;;;4959627;29;20290;-81
2021/06/03 00:48:21;;;;;;;9.00;4.65;;;19.10;99.90;;;;;;4959517;28;20273;-81
2021/06/03 00:50:50;;;;;;;4.65;4.15;;;19.00;99.90;;;;;;4958861;28;20305;-81
2021/06/03 00:53:18;;;;;;;6.55;4.18;;;19.00;99.90;;;;;;4942921;28;20210;-81
2021/06/03 00:55:48;;;;;;;5.13;4.55;;;19.00;99.90;;;;;;4959595;28;20249;-82
2021/06/03 00:58:20;;;;;;;4.15;3.85;;;19.00;99.90;;;;;;4958767;29;20194;-81
2021/06/03 01:00:48;;;;;;;7.32;5.00;;;19.00;99.90;;;;;;4958214;28;20223;-81
2021/06/03 01:03:17;;;;;;;5.53;5.03;;;19.00;99.90;;;;;;4960309;28;20222;-81
2021/06/03 01:05:48;;;;;;;5.90;4.65;;;18.90;99.90;;;;;;4958901;28;20194;-81
2021/06/03 01:08:18;;;;;;;4.88;4.38;;;18.80;99.90;;;;;;4957351;28;20270;-81
2021/06/03 01:10:53;;;;;;;5.63;4.63;;;18.90;99.90;;;;;;4959215;29;20226;-81
2021/06/03 01:13:37;;;;;;;4.78;4.30;;;18.80;99.90;;;;;;4957820;29;20202;-81
2021/06/03 01:16:06;;;;;;;5.68;4.70;;;18.90;99.90;;;;;;4957944;29;20194;-82
2021/06/03 01:18:34;;;;;;;5.80;4.30;;;18.90;99.90;;;;;;4941282;29;20199;-82
2021/06/03 01:21:06;;;;;;;4.22;3.90;;;18.80;99.90;;;;;;4957149;28;20617;-81
2021/06/03 01:23:38;;;;;;;5.35;4.78;;;18.80;99.90;;;;;;4959037;28;20217;-82
2021/06/03 01:26:11;;;;;;;4.15;3.85;;;18.80;99.90;;;;;;4957019;29;20669;-81
2021/06/03 01:28:38;;;;;;;5.78;4.22;;;18.90;99.90;;;;;;4958040;28;20698;-81
2021/06/03 01:31:07;;;;;;;5.43;4.93;;;18.90;99.90;;;;;;4961674;28;20218;-81
2021/06/03 01:33:38;;;;;;;5.57;5.07;;;18.80;99.90;;;;;;4960085;28;20322;-81
2021/06/03 01:36:06;;;;;;;5.47;4.97;;;18.70;99.90;;;;;;4960142;29;20194;-81
2021/06/03 01:38:38;;;;;;;4.63;4.22;;;18.40;99.90;;;;;;4943616;29;20270;-82
2021/06/03 01:41:08;;;;;;;5.05;4.63;;;18.30;99.90;;;;;;4959178;28;20226;-81
2021/06/03 01:43:44;;;;;;;4.70;4.18;;;18.20;99.90;;;;;;4959570;29;20198;-81
2021/06/03 01:46:12;;;;;;;6.78;4.53;;;18.20;99.90;;;;;;4960141;28;20205;-81
2021/06/03 01:48:40;;;;;;;6.57;4.45;;;18.20;99.90;;;;;;4960387;28;20187;-81
2021/06/03 01:51:13;;;;;;;4.82;4.05;;;18.20;99.90;;;;;;4959131;29;20218;-81
2021/06/03 01:53:41;;;;;;;5.57;5.10;;;18.20;99.90;;;;;;4958686;29;20214;-81
2021/06/03 01:56:10;;;;;;;6.53;4.65;;;18.10;99.90;;;;;;4960449;29;20205;-80
2021/06/03 01:58:38;;;;;;;7.53;4.65;;;18.10;99.90;;;;;;4959687;28;20266;-80
2021/06/03 02:01:08;;;;;;;4.75;4.35;;;18.10;99.90;;;;;;4958321;28;20226;-81
2021/06/03 02:03:36;;;;;;;5.55;5.05;;;18.10;99.90;;;;;;4959756;29;20222;-82
2021/06/03 02:06:06;;;;;;;5.32;4.50;;;18.00;99.90;;;;;;4958967;29;20195;-82
2021/06/03 02:08:33;;;;;;;5.97;4.53;;;18.10;99.90;;;;;;4958258;29;20238;-81
2021/06/03 02:11:09;;;;;;;5.55;4.97;;;18.00;99.90;;;;;;4958960;28;20588;-81
2021/06/03 02:13:39;;;;;;;5.38;4.88;;;18.00;99.90;;;;;;4942641;29;20195;-82
2021/06/03 02:16:17;;;;;;;5.57;5.15;;;18.10;99.90;;;;;;4956280;28;20207;-81
2021/06/03 02:18:48;;;;;;;6.75;5.45;;;18.10;99.90;;;;;;4958679;29;20210;-80
2021/06/03 02:21:18;;;;;;;8.45;4.78;;;18.10;99.90;;;;;;4959015;28;20237;-81
2021/06/03 02:23:46;;;;;;;5.40;4.90;;;18.00;99.90;;;;;;4960350;28;20327;-81
2021/06/03 02:26:14;;;;;;;5.15;4.75;;;17.90;99.90;;;;;;4959367;28;20194;-81
2021/06/03 02:28:49;;;;;;;5.57;5.05;;;17.80;99.90;;;;;;4960081;28;20266;-81
2021/06/03 02:31:18;;;;;;;8.32;4.93;;;17.80;99.90;;;;;;4944038;29;20211;-80
2021/06/03 02:33:49;;;;;;;5.75;5.25;;;17.80;99.90;;;;;;4961179;28;20277;-82
2021/06/03 02:36:16;;;;;;;5.10;4.65;;;17.80;99.90;;;;;;4961245;28;20230;-80
2021/06/03 02:38:43;;;;;;;6.78;6.13;;;17.80;99.90;;;;;;4962144;29;20669;-79
2021/06/03 02:41:12;;;;;;;7.03;5.30;;;17.80;99.90;;;;;;4966287;28;20237;-78
2021/06/03 02:43:44;;;;;;;9.13;5.50;;;17.80;99.90;;;;;;4948205;29;20569;-79
2021/06/03 02:46:11;;;;;;;5.97;5.57;;;17.80;99.90;;;;;;4966010;28;20266;-79
2021/06/03 02:48:40;;;;;;;6.20;5.60;;;17.70;99.90;;;;;;4948526;29;20682;-79
2021/06/03 02:51:11;;;;;;;5.70;5.20;;;17.60;99.90;;;;;;4963844;28;20287;-83
2021/06/03 02:53:39;;;;;;;5.68;5.22;;;17.50;99.90;;;;;;4967566;28;20199;-79
2021/06/03 02:56:08;;;;;;;5.88;5.32;;;17.50;99.90;;;;;;4968725;29;20217;-79
2021/06/03 02:58:34;;;;;;;5.80;5.30;;;17.50;99.90;;;;;;4967828;29;20563;-79
2021/06/03 03:01:03;;;;;;;6.57;5.30;;;17.40;99.90;;;;;;4965051;28;20230;-79
2021/06/03 03:03:30;;;;;;;9.10;6.68;;;17.40;99.90;;;;;;4962413;28;20254;-78
2021/06/03 03:05:59;;;;;;;6.40;5.82;;;17.40;99.90;;;;;;4960295;28;20708;-78
2021/06/03 03:08:29;;;;;;;6.60;4.72;;;17.40;99.90;;;;;;4960745;28;20198;-78
2021/06/03 03:11:02;;;;;;;7.25;5.93;;;17.40;99.90;;;;;;4959096;28;20302;-78
2021/06/03 03:13:37;;;;;;;6.95;6.13;;;17.40;99.90;;;;;;4959462;28;20261;-78
2021/06/03 03:16:05;;;;;;;8.32;5.97;;;17.30;99.90;;;;;;4961909;29;20199;-79
2021/06/03 03:18:32;;;;;;;7.45;6.78;;;17.30;99.90;;;;;;4960268;28;20238;-77
2021/06/03 03:21:01;;;;;;;6.80;6.00;;;17.30;99.90;;;;;;4943606;29;20242;-78
2021/06/03 03:23:27;;;;;;;5.72;5.20;;;17.30;99.90;;;;;;4945079;29;20233;-79
2021/06/03 03:25:57;;;;;;;6.55;5.53;;;17.10;99.90;;;;;;4946959;29;20207;-79
2021/06/03 03:28:25;;;;;;;6.32;5.72;;;17.10;99.90;;;;;;4962901;28;20400;-78
2021/06/03 03:30:53;;;;;;;6.85;6.13;;;17.10;99.90;;;;;;4963270;29;20249;-78
2021/06/03 03:33:24;;;;;;;6.18;5.65;;;17.10;99.90;;;;;;4965393;28;20199;-78
2021/06/03 03:35:52;;;;;;;6.72;5.85;;;17.10;99.90;;;;;;4964062;28;20202;-78
2021/06/03 03:38:25;;;;;;;5.60;5.10;;;17.10;99.90;;;;;;4963366;28;20780;-78
2021/06/03 03:40:54;;;;;;;7.93;5.53;;;17.10;99.90;;;;;;4970256;28;20226;-78
2021/06/03 03:43:24;;;;;;;6.10;5.63;;;17.10;99.90;;;;;;4982700;28;20221;-78
2021/06/03 03:45:55;;;;;;;8.32;5.72;;;17.10;99.90;;;;;;4982069;28;20209;-78
2021/06/03 03:48:22;;;;;;;7.10;6.10;;;17.00;99.90;;;;;;4982491;28;20198;-78
2021/06/03 03:50:49;;;;;;;9.95;5.70;;;17.00;99.90;;;;;;4966755;28;20256;-78
2021/06/03 03:53:22;;;;;;;6.65;6.05;;;17.00;99.90;;;;;;4983818;28;20257;-78
2021/06/03 03:55:51;;;;;;;6.55;5.88;;;17.00;99.90;;;;;;4982226;28;20194;-78
2021/06/03 03:58:18;;;;;;;6.28;5.75;;;17.00;99.90;;;;;;4982229;28;20201;-78
2021/06/03 04:00:46;;;;;;;5.88;5.28;;;17.00;99.90;;;;;;4966869;28;20672;-78
2021/06/03 04:03:23;;;;;;;5.72;4.95;;;17.00;99.90;;;;;;4985501;28;20210;-78
2021/06/03 04:05:55;;;;;;;6.75;6.15;;;17.10;99.90;;;;;;4967412;28;20671;-78
2021/06/03 04:08:24;;;;;;;9.13;6.25;;;17.30;99.90;;;;;;4967397;28;20321;-79
2021/06/03 04:10:52;;;;;;;7.10;6.43;;;17.30;99.90;;;;;;4982836;28;20624;-79
2021/06/03 04:13:22;;;;;;;8.25;7.53;;;17.40;99.90;;;;;;4983476;28;20218;-78
2021/06/03 04:15:54;;;;;;;6.38;5.78;;;17.40;99.90;;;;;;4963800;28;20710;-78
2021/06/03 04:18:21;;;;;;;8.50;7.63;;;17.30;99.90;;;;;;4964112;28;20203;-78
2021/06/03 04:20:48;;;;;;;6.15;5.65;;;17.30;99.90;;;;;;4981241;28;20241;-78
2021/06/03 04:23:17;;;;;;;8.05;7.07;;;17.30;99.90;;;;;;4965225;28;20209;-78
2021/06/03 04:25:47;;;;;;;10.50;6.90;;;17.30;99.90;;;;;;4981600;28;20197;-78
2021/06/03 04:28:15;;;;;;;8.45;7.40;;;17.30;99.90;;;;;;4982025;28;20202;-79
2021/06/03 04:30:42;;;;;;;7.20;5.97;;;17.30;99.90;;;;;;4982536;28;20230;-78
2021/06/03 04:33:10;;;;;;;8.05;7.25;;;17.30;99.90;;;;;;4984192;28;20202;-78
2021/06/03 04:35:37;;;;;;;6.55;6.00;;;17.30;99.90;;;;;;4983770;28;20202;-78
2021/06/03 04:38:05;;;;;;;7.32;6.30;;;17.30;99.90;;;;;;4974928;28;20204;-77
2021/06/03 04:40:32;;;;;;;8.23;7.38;;;17.30;99.90;;;;;;4973246;28;20226;-77
2021/06/03 04:42:59;;;;;;;7.65;6.82;;;17.30;99.90;;;;;;4974117;28;20213;-77
2021/06/03 04:45:28;;;;;;;9.27;6.32;;;17.30;99.90;;;;;;4972617;28;20230;-77
2021/06/03 04:47:55;;;;;;;7.80;6.85;;;17.30;99.90;;;;;;4973687;28;20575;-77
2021/06/03 04:50:23;;;;;;;6.90;6.20;;;17.40;99.90;;;;;;4972627;28;20202;-77
2021/06/03 04:52:50;;;;;;;9.35;7.82;;;17.40;99.90;;;;;;4973775;28;20237;-77
2021/06/03 04:55:21;;;;;;;9.73;8.73;;;17.50;99.90;;;;;;4972480;28;20276;-77
2021/06/03 04:57:48;;;;;;;8.65;7.85;;;17.50;99.90;;;;;;4973331;28;20206;-77
2021/06/03 05:00:17;;;;;;;7.80;7.00;;;17.50;99.90;;;;;;4973261;28;20238;-77
2021/06/03 05:02:46;;;;;;;7.82;6.57;;;17.70;99.90;;;;;;4972362;28;20222;-77
2021/06/03 05:05:14;;;;;;;9.82;8.43;;;17.70;99.90;;;;;;4972342;28;20206;-77
2021/06/03 05:07:42;;;;;;;6.82;6.22;;;17.80;99.90;;;;;;4973539;28;20229;-77
2021/06/03 05:10:10;;;;;;;9.02;5.97;;;17.90;99.90;;;;;;4971670;28;20245;-77
2021/06/03 05:12:37;;;;;;;7.28;6.25;;;17.90;99.90;;;;;;4971685;28;20236;-77
2021/06/03 05:15:06;;;;;;;8.00;7.30;;;18.10;99.90;;;;;;4972843;28;20272;-77
2021/06/03 05:17:34;;;;;;;7.30;6.20;;;18.10;99.90;;;;;;4973161;28;20695;-78
2021/06/03 05:20:03;;;;;;;7.35;6.60;;;18.20;99.90;;;;;;4973075;28;20225;-77
2021/06/03 05:22:30;;;;;;;9.10;6.45;;;18.40;99.90;;;;;;4972699;28;20241;-78
2021/06/03 05:24:59;;;;;;;6.13;5.53;;;18.40;99.90;;;;;;4975318;28;20201;-78
2021/06/03 05:27:26;;;;;;;10.23;6.65;;;18.50;99.90;;;;;;4975296;28;20584;-78
2021/06/03 05:29:53;;;;;;;9.73;5.47;;;18.60;99.90;;;;;;4974559;28;20198;-78
2021/06/03 05:32:19;;;;;;;6.05;5.55;;;18.70;99.90;;;;;;4972808;28;20309;-77
2021/06/03 05:34:46;;;;;;;6.90;6.10;;;18.70;99.90;;;;;;4953442;28;20408;-78
2021/06/03 05:37:14;;;;;;;6.57;6.07;;;18.80;99.90;;;;;;4961358;28;20198;-78
2021/06/03 05:39:40;;;;;;;6.78;6.18;;;19.00;99.90;;;;;;4954559;29;20215;-77
2021/06/03 05:42:08;;;;;;;6.35;5.65;;;19.10;99.90;;;;;;4954483;28;20230;-78
2021/06/03 05:44:34;;;;;;;8.50;7.05;;;19.20;99.90;;;;;;4954183;28;20205;-78
2021/06/03 05:47:01;;;;;;;7.28;6.38;;;19.30;99.90;;;;;;4953490;28;20226;-78
2021/06/03 05:49:28;;;;;;;6.63;5.93;;;19.50;99.90;;;;;;4954787;28;20285;-78
2021/06/03 05:52:01;;;;;;;9.38;6.75;;;19.60;99.90;;;;;;4954808;28;20237;-78
2021/06/03 05:54:30;;;;;;;6.93;5.63;;;19.60;99.90;;;;;;4953833;29;20205;-78
2021/06/03 05:56:56;;;;;;;9.02;7.43;;;19.60;99.90;;;;;;4954293;28;20289;-79
2021/06/03 05:59:23;;;;;;;6.63;5.97;;;19.80;99.90;;;;;;4956062;29;20207;-79
2021/06/03 06:01:50;;;;;;;8.52;6.78;;;19.80;99.90;;;;;;4953946;28;20230;-78
2021/06/03 06:07:01;;;;;;;9.40;6.63;;;20.00;99.90;;;;;;4970699;28;20193;-78
2021/06/03 06:09:27;;;;;;;7.40;5.72;;;20.00;99.90;;;;;;4972286;28;20259;-77
2021/06/03 06:11:55;;;;;;;8.45;5.75;;;20.00;99.90;;;;;;4958862;28;20709;-77
2021/06/03 06:14:22;;;;;;;7.45;5.95;;;20.00;99.90;;;;;;4953187;28;20191;-77
2021/06/03 06:16:48;;;;;;;6.72;5.80;;;20.10;99.90;;;;;;4953184;29;20202;-77
2021/06/03 06:19:15;;;;;;;8.55;7.57;;;19.90;99.90;;;;;;4952891;29;20202;-77
2021/06/03 06:21:41;;;;;;;6.95;6.35;;;19.90;99.90;;;;;;4951778;29;20249;-79
2021/06/03 06:24:09;;;;;;;6.57;5.88;;;20.20;99.90;;;;;;4953063;28;20550;-77
2021/06/03 06:26:35;;;;;;;6.22;5.45;;;20.30;99.90;;;;;;4971889;28;20201;-78
2021/06/03 06:29:04;;;;;;;6.15;5.55;;;20.40;99.90;;;;;;4970787;28;20224;-77
2021/06/03 06:31:31;;;;;;;9.65;7.88;;;20.60;99.90;;;;;;4972080;28;20717;-77
2021/06/03 06:33:57;;;;;;;5.53;5.03;;;20.80;99.90;;;;;;4972224;28;20198;-77
2021/06/03 06:36:24;;;;;;;6.25;5.55;;;21.00;99.90;;;;;;4970811;28;20578;-77
2021/06/03 06:38:51;;;;;;;5.82;4.25;;;21.20;99.90;;;;;;4971504;28;20214;-77
2021/06/03 06:41:17;;;;;;;6.88;6.13;;;21.30;99.90;;;;;;4971734;28;20716;-77
2021/06/03 06:43:44;;;;;;;5.95;5.07;;;21.50;99.90;;;;;;4972001;28;20202;-77
2021/06/03 06:46:12;;;;;;;4.95;4.50;;;21.60;99.90;;;;;;4962936;28;20511;-83
2021/06/03 06:48:58;;;;;;;5.38;4.63;;;21.70;99.90;;;;;;4975204;28;20583;-82
2021/06/03 06:51:25;;;;;;;5.50;5.05;;;21.90;99.90;;;;;;4956383;29;20317;-82
2021/06/03 06:53:52;;;;;;;5.20;4.65;;;21.70;99.90;;;;;;4968583;28;20190;-81
2021/06/03 06:56:19;;;;;;;5.50;4.25;;;21.80;99.90;;;;;;4962732;28;20265;-82
2021/06/03 06:58:46;;;;;;;7.18;4.13;;;21.80;99.90;;;;;;4976269;28;20576;-83
2021/06/03 07:01:14;;;;;;;11.00;8.13;;;21.70;99.90;;;;;;4980327;28;20309;-82
2021/06/03 07:03:41;;;;;;;5.78;5.28;;;21.80;99.90;;;;;;4984062;28;20190;-82
2021/06/03 07:06:08;;;;;;;5.93;4.30;;;21.80;99.90;;;;;;4984284;28;20198;-82
2021/06/03 07:08:34;;;;;;;5.32;4.78;;;21.70;99.90;;;;;;4974095;28;20217;-84
2021/06/03 07:11:01;;;;;;;6.28;4.90;;;21.70;99.90;;;;;;4980364;28;20225;-82
2021/06/03 07:13:27;;;;;;;5.05;4.38;;;21.80;99.90;;;;;;4966677;28;20210;-83
2021/06/03 07:15:54;;;;;;;7.63;5.45;;;22.10;99.90;;;;;;4975205;28;20198;-82
2021/06/03 07:18:22;;;;;;;5.57;5.07;;;22.20;99.90;;;;;;4963113;28;20534;-81
2021/06/03 07:20:49;;;;;;;5.53;5.03;;;22.30;99.90;;;;;;4962671;28;20257;-82
2021/06/03 07:23:16;;;;;;;7.70;4.85;;;22.30;99.90;;;;;;4968808;28;20245;-82
2021/06/03 07:25:42;;;;;;;5.90;4.38;;;22.40;99.90;;;;;;4968279;28;20329;-81
2021/06/03 07:28:10;;;;;;;6.43;5.25;;;22.40;99.90;;;;;;4973569;28;20443;-82
2021/06/03 07:30:36;;;;;;;6.82;5.10;;;22.60;99.90;;;;;;4971309;28;20283;-82
2021/06/03 07:33:05;;;;;;;4.90;4.40;;;22.70;99.90;;;;;;4969900;28;20199;-82
2021/06/03 07:35:36;;;;;;;6.00;4.35;;;22.80;99.90;;;;;;4967774;28;20190;-82
2021/06/03 07:38:03;;;;;;;7.28;5.00;;;22.90;99.90;;;;;;4969933;28;20689;-82
2021/06/03 07:40:33;;;;;;;11.57;9.48;;;22.90;99.90;;;;;;4971600;28;20238;-82
2021/06/03 07:43:00;;;;;;;10.55;5.88;;;23.00;99.90;;;;;;4967329;29;20250;-82
2021/06/03 07:45:28;;;;;;;5.65;5.15;;;23.10;99.90;;;;;;4983362;28;20210;-82
2021/06/03 07:47:56;;;;;;;5.80;5.28;;;23.20;99.90;;;;;;4969262;28;20202;-84
2021/06/03 07:50:24;;;;;;;7.45;5.72;;;23.20;99.90;;;;;;4965102;28;20692;-83
2021/06/03 07:52:55;;;;;;;8.27;5.32;;;23.30;99.90;;;;;;4964588;29;20226;-83
2021/06/03 07:55:22;;;;;;;6.97;4.70;;;23.30;99.90;;;;;;4964894;28;20454;-83
2021/06/03 07:57:51;;;;;;;8.95;5.70;;;23.30;99.90;;;;;;4965931;28;20203;-82
2021/06/03 08:00:20;;;;;;;9.80;5.03;;;23.50;99.90;;;;;;4960239;28;20218;-82
2021/06/03 08:02:48;;;;;;;8.32;5.05;;;23.60;99.90;;;;;;4962136;28;20222;-82
2021/06/03 08:05:16;;;;;;;5.32;4.82;;;23.70;99.90;;;;;;4970317;28;20775;-82
2021/06/03 08:07:43;;;;;;;7.78;4.95;;;23.70;99.90;;;;;;4965329;28;20207;-82
2021/06/03 08:10:15;;;;;;;6.63;6.00;;;23.70;99.90;;;;;;4977241;28;20195;-82
2021/06/03 08:16:25;;;;;;;5.28;4.78;;;23.80;99.90;;;;;;4969670;28;20198;-81
2021/06/03 08:18:52;;;;;;;7.32;5.00;;;23.90;99.90;;;;;;4960410;28;20199;-80
2021/06/03 08:21:18;;;;;;;5.15;4.65;;;23.90;99.90;;;;;;4959260;28;20354;-79
2021/06/03 08:23:45;;;;;;;6.65;4.80;;;23.90;99.90;;;;;;4958759;29;20376;-80
2021/06/03 08:26:13;;;;;;;7.68;5.75;;;24.00;99.90;;;;;;4974447;28;20213;-81
2021/06/03 08:28:40;;;;;;;6.53;4.78;;;24.00;99.90;;;;;;4964880;28;20552;-80
2021/06/03 08:31:07;;;;;;;5.55;4.90;;;24.10;99.90;;;;;;4972924;28;20221;-82
2021/06/03 08:33:35;;;;;;;4.90;4.40;;;24.20;99.90;;;;;;4979162;28;20198;-81
2021/06/03 08:36:01;;;;;;;5.80;5.20;;;24.20;99.90;;;;;;4981444;28;20640;-82
2021/06/03 08:38:31;;;;;;;7.65;5.10;;;24.40;99.90;;;;;;4985532;28;20201;-82
2021/06/03 08:40:59;;;;;;;7.05;5.10;;;24.40;99.90;;;;;;4973972;28;20293;-82
2021/06/03 08:43:30;;;;;;;11.15;5.82;;;24.40;99.90;;;;;;4988163;28;20686;-82
2021/06/03 08:45:59;;;;;;;5.18;4.65;;;24.60;99.90;;;;;;4989964;28;20198;-82
2021/06/03 08:48:33;;;;;;;10.40;5.53;;;24.60;99.90;;;;;;4987264;28;20224;-82
2021/06/03 08:51:03;;;;;;;5.00;4.50;;;24.80;99.90;;;;;;4988846;28;20248;-82
2021/06/03 08:53:31;;;;;;;8.05;5.13;;;24.90;99.90;;;;;;4990456;28;20186;-82
2021/06/03 08:56:15;;;;;;;5.70;4.72;;;24.90;99.90;;;;;;4979025;28;20215;-82
2021/06/03 08:58:44;;;;;;;5.00;4.03;;;25.00;99.90;;;;;;4969351;28;20207;-83
2021/06/03 09:01:12;;;;;;;8.48;4.00;;;25.20;99.90;;;;;;4969201;28;20234;-82
2021/06/03 09:03:40;;;;;;;4.35;3.95;;;25.30;99.90;;;;;;4986723;28;20249;-81
2021/06/03 09:06:08;;;;;;;4.90;4.22;;;25.60;99.90;;;;;;4989552;28;20205;-79
2021/06/03 09:08:36;;;;;;;9.95;4.38;;;25.70;99.90;;;;;;4989591;28;20206;-79
2021/06/03 09:11:08;;;;;;;7.60;3.60;;;25.90;99.90;;;;;;4989211;28;20265;-80
2021/06/03 09:13:37;;;;;;;3.80;3.50;;;26.00;99.90;;;;;;4988641;28;20221;-80
2021/06/03 09:16:16;;;;;;;4.82;3.85;;;26.20;99.90;;;;;;4987646;28;20202;-80
2021/06/03 09:18:47;;;;;;;7.35;3.75;;;26.20;99.90;;;;;;4989754;28;20234;-79
2021/06/03 09:21:18;;;;;;;4.88;3.70;;;26.30;99.90;;;;;;4988602;28;20238;-80
2021/06/03 09:23:47;;;;;;;3.88;3.47;;;26.30;99.90;;;;;;4980759;28;20266;-80
2021/06/03 09:26:17;;;;;;;4.45;4.05;;;26.10;99.90;;;;;;4977522;28;20210;-80
2021/06/03 09:28:45;;;;;;;3.30;2.95;;;26.30;99.90;;;;;;4969379;29;20207;-80
2021/06/03 09:31:17;;;;;;;4.70;3.08;;;26.30;99.90;;;;;;4968951;28;20210;-80
2021/06/03 09:33:56;;;;;;;3.42;3.10;;;26.30;99.90;;;;;;4969407;29;20262;-80
2021/06/03 09:36:29;;;;;;;4.72;3.85;;;26.50;99.90;;;;;;4967082;28;20202;-81
2021/06/03 09:39:13;;;;;;;3.50;3.20;;;26.50;99.90;;;;;;4969115;28;20214;-80
2021/06/03 09:41:41;;;;;;;4.03;3.72;;;26.40;99.90;;;;;;4952467;29;20293;-80
2021/06/03 09:44:20;;;;;;;3.95;3.28;;;26.50;99.90;;;;;;4978468;28;20204;-85
2021/06/03 09:46:51;;;;;;;4.22;3.08;;;26.60;99.90;;;;;;4958335;28;20225;-85
2021/06/03 09:50:14;;;;;;;3.80;3.50;;;26.70;99.90;;;;;;4961786;28;20215;-85
2021/06/03 09:52:48;;;;;;;4.35;3.72;;;26.70;99.90;;;;;;4976876;28;20229;-85
2021/06/03 09:55:30;;;;;;;3.15;2.95;;;26.90;99.90;;;;;;4971992;28;20210;-84
2021/06/03 09:58:07;;;;;;;6.45;2.83;;;26.80;99.90;;;;;;4974124;28;20195;-86
2021/06/03 10:01:19;;;;;;;4.32;3.53;;;27.10;99.90;;;;;;4974679;28;20273;-88
2021/06/03 10:03:55;;;;;;;3.55;3.10;;;27.10;99.90;;;;;;4900582;29;20233;-84
2021/06/03 10:06:25;;;;;;;3.80;2.92;;;27.30;99.90;;;;;;4865887;29;20204;-83
2021/06/03 10:08:52;;;;;;;4.65;2.65;;;27.50;99.90;;;;;;4943223;28;20202;-84
2021/06/03 10:11:54;;;;;;;3.42;3.13;;;27.70;99.90;;;;;;4973215;28;20242;-84
2021/06/03 10:14:27;;;;;;;4.00;3.20;;;27.70;99.90;;;;;;4948795;28;20363;-85
2021/06/03 10:17:33;;;;;;;5.47;2.80;;;27.70;99.90;;;;;;4971133;28;20216;-85
2021/06/03 10:20:31;;;;;;;4.03;3.40;;;27.70;99.90;;;;;;4961722;28;20630;-85
2021/06/03 10:23:00;;;;;;;2.47;2.38;;;27.70;99.90;;;;;;4932845;29;20230;-36
2021/06/03 10:25:28;;;;;;;5.10;3.03;;;27.70;99.90;;;;;;4914294;28;20356;-36
2021/06/03 10:27:57;;;;;;;3.90;2.90;;;27.70;99.90;;;;;;4915649;29;20301;-36
2021/06/03 10:30:25;;;;;;;4.00;2.75;;;27.90;99.90;;;;;;4930719;29;20218;-35
2021/06/03 10:32:55;;;;;;;3.20;2.83;;;28.10;99.90;;;;;;4932570;29;20204;-38
2021/06/03 10:35:25;;;;;;;3.20;2.58;;;28.20;99.90;;;;;;4931159;29;20664;-37
2021/06/03 10:37:52;;;;;;;6.45;3.40;;;28.00;99.90;;;;;;4933944;29;20246;-36
2021/06/03 10:40:22;;;;;;;6.90;3.20;;;27.80;99.90;;;;;;4931012;29;20222;-37
2021/06/03 10:42:50;;;;;;;6.57;3.50;;;27.90;99.90;;;;;;4936202;29;20195;-37
2021/06/03 10:45:20;;;;;;;4.15;2.75;;;28.00;99.90;;;;;;4934758;29;20689;-37
2021/06/03 10:47:47;;;;;;;5.22;2.70;;;27.80;99.90;;;;;;4924210;29;20302;-37
2021/06/03 10:50:18;;;;;;;5.18;3.03;;;27.90;99.90;;;;;;4934728;29;20680;-37
2021/06/03 10:52:47;;;;;;;6.13;2.83;;;27.90;99.90;;;;;;4936292;29;20697;-38
2021/06/03 10:55:25;;;;;;;5.75;3.63;;;28.00;99.90;;;;;;4936127;29;20203;-37
2021/06/03 10:57:54;;;;;;;4.70;3.10;;;28.00;99.90;;;;;;4934446;29;20219;-37
2021/06/03 11:00:32;;;;;;;4.68;3.13;;;28.10;99.90;;;;;;4927590;29;20212;-37
2021/06/03 11:03:02;;;;;;;4.85;3.58;;;28.20;99.90;;;;;;4917343;29;20200;-37
2021/06/03 11:05:31;;;;;;;8.45;3.55;;;28.20;99.90;;;;;;4920509;29;20277;-37
2021/06/03 11:08:28;;;;;;;7.25;3.33;;;28.30;99.90;;;;;;4932889;29;20223;-38
2021/06/03 11:11:17;;;;;;;3.65;3.35;;;28.30;99.90;;;;;;4917449;29;20212;-37
2021/06/03 11:14:09;;;;;;;3.70;3.38;;;28.30;99.90;;;;;;4922507;29;20191;-37
2021/06/03 11:16:54;;;;;;;4.88;3.40;;;28.40;99.90;;;;;;4920970;29;20224;-39
2021/06/03 11:19:23;;;;;;;4.30;3.70;;;28.70;99.90;;;;;;4934548;29;20638;-37
2021/06/03 11:22:03;;;;;;;3.83;3.35;;;28.90;99.90;;;;;;4924065;29;20248;-38
2021/06/03 11:24:48;;;;;;;5.68;3.90;;;28.90;99.90;;;;;;4916841;29;20207;-38
2021/06/03 11:27:17;;;;;;;7.20;3.67;;;29.20;99.90;;;;;;4928206;29;20237;-39
2021/06/03 11:29:57;;;;;;;9.70;4.85;;;29.30;99.90;;;;;;4933844;29;20203;-37
2021/06/03 11:32:28;;;;;;;3.97;3.22;;;29.60;99.90;;;;;;4934228;29;20199;-37
2021/06/03 11:34:56;;;;;;;2.83;2.55;;;29.90;99.90;;;;;;4917855;29;20196;-37
2021/06/03 11:37:24;;;;;;;3.17;2.97;;;30.10;99.90;;;;;;4916364;29;20274;-37
2021/06/03 11:39:54;;;;;;;3.63;3.33;;;30.30;99.90;;;;;;4917104;29;20208;-38
2021/06/03 11:42:28;;;;;;;3.75;3.42;;;30.20;99.90;;;;;;4932001;29;20226;-37
2021/06/03 11:45:23;;;;;;;5.22;2.95;;;30.20;99.90;;;;;;4935551;29;20223;-37
2021/06/03 11:48:09;;;;;;;3.40;2.80;;;30.10;99.90;;;;;;4933509;29;20282;-38
2021/06/03 11:51:00;;;;;;;8.65;3.17;;;29.90;99.90;;;;;;4934389;29;20203;-38
2021/06/03 11:53:30;;;;;;;4.72;2.83;;;29.80;99.90;;;;;;4935278;29;20627;-38
2021/06/03 11:56:09;;;;;;;12.38;4.53;;;30.00;99.90;;;;;;4933318;29;20230;-38
2021/06/03 11:58:49;;;;;;;5.38;3.55;;;30.10;99.90;;;;;;4933464;29;20673;-37
2021/06/03 12:01:33;;;;;;;3.08;2.85;;;30.40;99.90;;;;;;4935468;29;20215;-37
2021/06/03 12:04:19;;;;;;;2.97;2.63;;;30.30;99.90;;;;;;4935219;29;20507;-38
2021/06/03 12:06:49;;;;;;;2.78;2.58;;;30.30;99.90;;;;;;4921870;29;20313;-38
2021/06/03 12:09:25;;;;;;;3.83;3.28;;;30.30;99.90;;;;;;4930563;29;20716;-38
2021/06/03 12:11:55;;;;;;;6.53;3.42;;;30.70;99.90;;;;;;4931590;29;20560;-38
2021/06/03 12:14:24;;;;;;;4.00;3.53;;;30.80;99.90;;;;;;4924016;29;20385;-39
2021/06/03 12:16:53;;;;;;;6.28;3.28;;;30.90;99.90;;;;;;4930094;29;20313;-38
2021/06/03 12:19:23;;;;;;;3.85;3.55;;;30.80;99.90;;;;;;4931240;29;20208;-37
2021/06/03 12:21:54;;;;;;;3.63;3.22;;;31.00;99.90;;;;;;4927126;29;20216;-37
2021/06/03 12:24:39;;;;;;;7.97;4.22;;;30.80;99.90;;;;;;4929097;29;20572;-37
2021/06/03 12:27:21;;;;;;;4.65;3.58;;;30.70;99.90;;;;;;4949426;28;20219;-39
2021/06/03 12:29:48;;;;;;;4.50;3.45;;;30.80;99.90;;;;;;4953584;28;20214;-38
2021/06/03 12:32:16;;;;;;;5.28;3.78;;;30.40;99.90;;;;;;4937247;28;20192;-39
2021/06/03 12:34:43;;;;;;;5.63;3.70;;;30.40;99.90;;;;;;4932815;29;20206;-37
2021/06/03 12:37:21;;;;;;;5.82;4.10;;;30.40;99.90;;;;;;4929609;29;20223;-38
2021/06/03 12:39:48;;;;;;;4.82;3.83;;;30.60;99.90;;;;;;4931001;29;20572;-38
2021/06/03 12:42:20;;;;;;;4.75;3.65;;;30.90;99.90;;;;;;4931365;29;20318;-38
2021/06/03 12:44:58;;;;;;;5.78;3.53;;;31.60;99.90;;;;;;4932842;29;20199;-39
2021/06/03 12:47:31;;;;;;;6.03;3.72;;;32.20;99.90;;;;;;4925039;29;20665;-38
2021/06/03 12:50:05;;;;;;;4.78;4.18;;;32.60;99.90;;;;;;4917199;29;20229;-40
2021/06/03 12:52:32;;;;;;;4.53;4.10;;;32.60;99.90;;;;;;4918854;29;20815;-38
2021/06/03 12:55:00;;;;;;;5.55;3.80;;;32.60;99.90;;;;;;4930706;29;20692;-39
2021/06/03 12:57:29;;;;;;;3.85;3.47;;;32.50;99.90;;;;;;4923717;29;20736;-38
2021/06/03 12:59:57;;;;;;;6.43;4.22;;;32.50;99.90;;;;;;4914762;29;20224;-37
2021/06/03 13:02:29;;;;;;;4.10;3.70;;;32.10;99.90;;;;;;4916501;29;20223;-38
2021/06/03 13:04:56;;;;;;;4.03;3.40;;;32.00;99.90;;;;;;4916303;29;20742;-38
2021/06/03 13:07:29;;;;;;;4.13;3.75;;;31.90;99.90;;;;;;4913366;29;20228;-37
2021/06/03 13:09:57;;;;;;;5.47;4.30;;;31.90;99.90;;;;;;4929261;29;20219;-38